Time;durP1;ratioP1;P1;durP2;ratioP2;P2;SDS_P1;SDS_P2;PMS_P1;PMS_P2;Temp;Humidity;BMP_temperature;BMP_pressure;BME280_temperature;BME280_humidity;BME280_pressure;Samples;Min_cycle;Max_cycle;Signal;HPM_P1;HPM_P2
2022/11/14 00:02:12;;;;;;;100.60;38.60;;;;;;;5.14;99.19;99563.22;102500;1318;138462;-78
2022/11/14 00:04:57;;;;;;;89.20;33.50;;;;;;;5.15;99.28;99563.94;101862;1299;22498;-78
2022/11/14 00:07:43;;;;;;;85.60;32.60;;;;;;;5.14;99.41;99565.09;101948;1321;138210;-78
2022/11/14 00:10:29;;;;;;;89.40;33.60;;;;;;;5.13;99.06;99563.89;102084;1321;25230;-78
2022/11/14 00:13:16;;;;;;;88.00;34.40;;;;;;;5.12;99.09;99559.12;102168;1298;138246;-78
2022/11/14 00:16:02;;;;;;;88.50;35.00;;;;;;;5.11;99.01;99562.67;102191;1321;22497;-78
2022/11/14 00:18:47;;;;;;;87.30;34.00;;;;;;;5.11;99.25;99561.14;102166;1321;22588;-78
2022/11/14 00:21:32;;;;;;;83.70;34.20;;;;;;;5.11;99.13;99562.04;102053;1319;139170;-78
2022/11/14 00:24:21;;;;;;;88.40;34.30;;;;;;;5.09;98.98;99559.16;102107;1320;22547;-78
2022/11/14 00:27:07;;;;;;;70.60;28.60;;;;;;;5.06;98.89;99553.57;101891;1320;138105;-77
2022/11/14 00:29:52;;;;;;;62.90;26.50;;;;;;;5.04;98.89;99552.29;102136;1313;22580;-78
2022/11/14 00:32:37;;;;;;;62.70;26.50;;;;;;;5.01;98.81;99551.56;102178;1311;138246;-78
2022/11/14 00:35:23;;;;;;;67.10;27.70;;;;;;;4.97;98.67;99549.27;102087;1303;22538;-77
2022/11/14 00:38:08;;;;;;;62.50;26.80;;;;;;;4.94;98.78;99548.31;102089;1312;138080;-78
2022/11/14 00:40:54;;;;;;;59.30;26.40;;;;;;;4.90;98.72;99551.38;102167;1320;24263;-78
2022/11/14 00:43:39;;;;;;;62.40;24.90;;;;;;;4.85;98.63;99542.80;102058;1296;138181;-77
2022/11/14 00:46:25;;;;;;;66.90;25.70;;;;;;;4.82;98.80;99539.17;102062;1321;22494;-78
2022/11/14 00:49:10;;;;;;;65.80;24.60;;;;;;;4.81;99.06;99540.92;101779;1305;138216;-77
2022/11/14 00:51:56;;;;;;;66.30;25.50;;;;;;;4.81;99.06;99539.17;102006;1321;22564;-77
2022/11/14 00:54:41;;;;;;;57.80;23.40;;;;;;;4.79;98.97;99539.89;101992;1321;22620;-78
2022/11/14 00:57:27;;;;;;;57.50;24.30;;;;;;;4.76;98.92;99543.80;102132;1312;138537;-78
2022/11/14 01:00:13;;;;;;;57.20;22.50;;;;;;;4.73;98.93;99540.15;102224;1320;22691;-77
2022/11/14 01:02:59;;;;;;;63.60;24.70;;;;;;;4.72;99.07;99544.15;102112;1305;138074;-78
2022/11/14 01:05:48;;;;;;;60.20;24.00;;;;;;;4.73;99.34;99542.01;102662;1317;23917;-78
2022/11/14 01:08:34;;;;;;;61.00;25.80;;;;;;;4.72;99.27;99538.67;102552;1301;139284;-78
2022/11/14 01:11:23;;;;;;;59.10;23.00;;;;;;;4.73;99.22;99535.23;102697;1318;22632;-78
2022/11/14 01:14:09;;;;;;;51.70;21.30;;;;;;;4.72;99.18;99527.54;102655;1309;138468;-78
2022/11/14 01:16:56;;;;;;;60.10;22.40;;;;;;;4.71;98.99;99530.59;102535;1318;25226;-78
2022/11/14 01:19:41;;;;;;;54.60;21.50;;;;;;;4.71;99.14;99533.86;102587;1296;138275;-77
2022/11/14 01:22:29;;;;;;;48.60;19.10;;;;;;;4.67;98.91;99532.81;102556;1319;22485;-78
2022/11/14 01:25:14;;;;;;;57.60;22.20;;;;;;;4.67;98.95;99536.65;102588;1304;138137;-78
2022/11/14 01:28:00;;;;;;;45.10;19.20;;;;;;;4.66;98.83;99532.58;102664;1317;22480;-78
2022/11/14 01:30:46;;;;;;;50.90;20.40;;;;;;;4.64;98.79;99530.67;102671;1310;23355;-78
2022/11/14 01:33:32;;;;;;;50.00;19.70;;;;;;;4.64;99.04;99531.56;102562;1297;139004;-78
2022/11/14 01:36:18;;;;;;;47.40;20.20;;;;;;;4.65;98.98;99522.80;102464;1318;25481;-78
2022/11/14 01:39:04;;;;;;;47.50;19.40;;;;;;;4.66;99.05;99523.27;102569;1317;137930;-77
2022/11/14 01:41:50;;;;;;;47.30;19.10;;;;;;;4.66;99.15;99520.41;102869;1296;25444;-78
2022/11/14 01:44:47;;;;;;;38.40;17.00;;;;;;;4.66;98.99;99514.41;102510;1310;138273;-78
2022/11/14 01:47:34;;;;;;;44.00;18.20;;;;;;;4.65;98.92;99512.19;102409;1317;25323;-77
2022/11/14 01:50:19;;;;;;;48.50;18.90;;;;;;;4.66;99.31;99513.16;102257;1310;138108;-77
2022/11/14 01:53:05;;;;;;;49.00;20.00;;;;;;;4.67;99.25;99509.51;102486;1294;22742;-77
2022/11/14 01:55:56;;;;;;;46.90;18.10;;;;;;;4.66;99.30;99510.63;102326;1310;138329;-77
2022/11/14 01:58:45;;;;;;;;;;;;;;;4.66;99.39;99507.60;102461;1316;24035;-77
2022/11/14 02:01:35;;;;;;;37.40;15.70;;;;;;;4.65;99.41;99511.88;102281;1296;125316;-78
2022/11/14 02:04:36;;;;;;;35.60;16.00;;;;;;;4.64;99.42;99511.08;102447;1304;22485;-77
2022/11/14 02:07:24;;;;;;;32.90;14.60;;;;;;;4.62;99.42;99509.75;102349;1318;138967;-78
2022/11/14 02:10:16;;;;;;;33.30;13.50;;;;;;;4.60;99.35;99502.73;102459;1300;22705;-78
2022/11/14 02:13:02;;;;;;;34.60;14.80;;;;;;;4.58;99.15;99500.56;102452;1318;22637;-78
2022/11/14 02:15:49;;;;;;;32.90;13.90;;;;;;;4.56;99.15;99494.39;102398;1317;25457;-77
2022/11/14 02:18:34;;;;;;;34.30;14.40;;;;;;;4.54;99.30;99496.05;102697;1294;23883;-77
2022/11/14 02:21:20;;;;;;;28.00;12.60;;;;;;;4.53;99.25;99495.96;102347;1294;138193;-77
2022/11/14 02:24:12;;;;;;;33.80;14.10;;;;;;;4.52;99.48;99498.46;102460;1312;22960;-77
2022/11/14 02:26:58;;;;;;;26.30;13.20;;;;;;;4.52;99.54;99497.79;102079;1309;139320;-77
2022/11/14 02:29:44;;;;;;;26.90;12.20;;;;;;;4.51;99.48;99496.61;102404;1309;24421;-77
2022/11/14 02:32:29;;;;;;;29.80;13.30;;;;;;;4.50;99.48;99496.70;102246;1297;138042;-77
2022/11/14 02:35:15;;;;;;;31.70;13.80;;;;;;;4.50;99.48;99488.80;102663;1294;24282;-78
2022/11/14 02:38:00;;;;;;;29.30;13.10;;;;;;;4.49;99.34;99482.96;102005;1317;138221;-77
2022/11/14 02:40:46;;;;;;;25.60;12.00;;;;;;;4.49;99.54;99480.86;102063;1314;22499;-77
2022/11/14 02:43:32;;;;;;;28.30;13.30;;;;;;;4.48;99.73;99480.96;102272;1309;139212;-77
2022/11/14 02:46:17;;;;;;;30.80;12.70;;;;;;;4.47;99.86;99481.20;102438;1315;22503;-77
2022/11/14 02:49:02;;;;;;;26.70;13.30;;;;;;;4.48;99.83;99473.94;102377;1318;24361;-77
2022/11/14 02:51:48;;;;;;;30.10;14.00;;;;;;;4.47;99.79;99467.17;102455;1308;25314;-77
2022/11/14 02:54:38;;;;;;;30.10;14.10;;;;;;;4.48;99.84;99469.93;102287;1309;25306;-77
2022/11/14 02:57:23;;;;;;;28.20;11.80;;;;;;;4.48;99.93;99476.39;102212;1317;139172;-77
2022/11/14 03:00:10;;;;;;;25.60;13.00;;;;;;;4.49;100.00;99476.64;102330;1296;22483;-77
2022/11/14 03:02:56;;;;;;;29.80;12.90;;;;;;;4.51;100.00;99475.70;102334;1308;138273;-78
2022/11/14 03:05:44;;;;;;;30.30;12.90;;;;;;;4.51;100.00;99474.66;102354;1310;22488;-77
2022/11/14 03:08:30;;;;;;;33.30;14.00;;;;;;;4.50;99.99;99473.20;102314;1293;138610;-77
2022/11/14 03:11:16;;;;;;;32.20;12.50;;;;;;;4.51;100.00;99476.48;102538;1317;24318;-77
2022/11/14 03:14:01;;;;;;;32.00;12.60;;;;;;;4.52;100.00;99475.73;102265;1317;138316;-77
2022/11/14 03:16:49;;;;;;;31.50;13.00;;;;;;;4.53;100.00;99470.84;102398;1293;24466;-77
2022/11/14 03:19:35;;;;;;;33.30;13.30;;;;;;;4.54;100.00;99466.22;101985;1318;138684;-78
2022/11/14 03:22:21;;;;;;;33.70;15.80;;;;;;;4.54;100.00;99460.41;102467;1294;22945;-77
2022/11/14 03:25:07;;;;;;;29.80;12.90;;;;;;;4.56;100.00;99453.42;102461;1317;22489;-78
2022/11/14 03:27:55;;;;;;;28.40;11.90;;;;;;;4.56;100.00;99452.23;102384;1318;22490;-77
2022/11/14 03:30:41;;;;;;;33.10;13.50;;;;;;;4.55;100.00;99453.16;102364;1295;22491;-77
2022/11/14 03:33:27;;;;;;;24.70;10.50;;;;;;;4.54;100.00;99457.91;102251;1308;139141;-77
2022/11/14 03:36:14;;;;;;;24.50;12.30;;;;;;;4.55;100.00;99459.29;102698;1310;22477;-78
2022/11/14 03:39:03;;;;;;;;;;;;;;;4.53;100.00;99458.80;102673;1286;139357;-78
2022/11/14 03:41:48;;;;;;;29.80;11.50;;;;;;;4.51;100.00;99455.79;102720;1286;22683;-78
2022/11/14 03:44:34;;;;;;;20.20;9.20;;;;;;;4.50;100.00;99458.36;102637;1303;138261;-78
2022/11/14 03:47:20;;;;;;;22.10;9.90;;;;;;;4.49;100.00;99463.73;102821;1302;22486;-77
2022/11/14 03:50:05;;;;;;;25.50;10.50;;;;;;;4.48;100.00;99455.61;102744;1310;138154;-78
2022/11/14 03:52:51;;;;;;;24.80;11.50;;;;;;;4.47;100.00;99454.98;102453;1318;22487;-77
2022/11/14 03:55:37;;;;;;;26.20;11.80;;;;;;;4.49;100.00;99454.20;102282;1310;138336;-77
2022/11/14 03:58:26;;;;;;;24.70;12.70;;;;;;;4.50;100.00;99457.10;102371;1302;26498;-77
2022/11/14 04:01:12;;;;;;;30.10;13.30;;;;;;;4.53;100.00;99458.58;102153;1299;26268;-78
2022/11/14 04:03:58;;;;;;;25.00;10.70;;;;;;;4.57;100.00;99456.34;102387;1296;23739;-77
2022/11/14 04:06:44;;;;;;;23.50;11.70;;;;;;;4.59;100.00;99448.87;102374;1318;24399;-77
2022/11/14 04:09:30;;;;;;;25.60;11.00;;;;;;;4.60;100.00;99442.36;102260;1309;138274;-76
2022/11/14 04:12:16;;;;;;;28.80;12.50;;;;;;;4.59;100.00;99435.42;102559;1302;24384;-77
2022/11/14 04:15:01;;;;;;;27.60;12.20;;;;;;;4.58;100.00;99430.34;102293;1305;138635;-77
2022/11/14 04:17:47;;;;;;;30.70;11.90;;;;;;;4.59;100.00;99431.35;102316;1286;25652;-77
2022/11/14 04:20:33;;;;;;;27.80;13.20;;;;;;;4.60;100.00;99431.50;102328;1309;138178;-77
2022/11/14 04:23:19;;;;;;;30.70;12.60;;;;;;;4.63;100.00;99428.89;102386;1296;22491;-77
2022/11/14 04:26:07;;;;;;;30.60;12.50;;;;;;;4.63;100.00;99430.92;102357;1294;138370;-77
2022/11/14 04:28:53;;;;;;;30.30;14.40;;;;;;;4.62;100.00;99430.70;102437;1312;22480;-77
2022/11/14 04:31:38;;;;;;;34.00;13.40;;;;;;;4.60;100.00;99429.17;102285;1296;139775;-77
2022/11/14 04:34:24;;;;;;;33.80;13.70;;;;;;;4.60;100.00;99426.17;102510;1310;22507;-77
2022/11/14 04:37:10;;;;;;;32.60;14.00;;;;;;;4.60;100.00;99421.27;102491;1317;22490;-77
2022/11/14 04:39:59;;;;;;;31.60;14.50;;;;;;;4.62;100.00;99415.33;102378;1317;138121;-77
2022/11/14 04:42:45;;;;;;;32.40;13.00;;;;;;;4.62;100.00;99414.55;102492;1303;22591;-77
2022/11/14 04:45:31;;;;;;;33.60;13.10;;;;;;;4.64;100.00;99413.42;102297;1296;138231;-77
2022/11/14 04:48:17;;;;;;;31.60;13.30;;;;;;;4.64;100.00;99414.97;102470;1317;24461;-77
2022/11/14 04:51:02;;;;;;;28.00;12.60;;;;;;;4.66;100.00;99415.73;102106;1317;138679;-77
2022/11/14 04:53:48;;;;;;;25.90;11.50;;;;;;;4.66;100.00;99421.46;102429;1302;22583;-76
2022/11/14 04:56:34;;;;;;;27.40;12.10;;;;;;;4.66;100.00;99426.70;102325;1300;139627;-77
2022/11/14 04:59:19;;;;;;;28.30;12.10;;;;;;;4.66;100.00;99427.61;102459;1307;24279;-77
2022/11/14 05:02:04;;;;;;;25.00;11.20;;;;;;;4.67;100.00;99426.74;102198;1317;138582;-77
2022/11/14 05:04:50;;;;;;;25.00;11.30;;;;;;;4.65;100.00;99418.64;102440;1318;22513;-77
2022/11/14 05:07:35;;;;;;;26.50;11.50;;;;;;;4.66;100.00;99420.80;102358;1294;138896;-77
2022/11/14 05:10:21;;;;;;;26.60;11.30;;;;;;;4.64;100.00;99416.28;102427;1317;22949;-77
2022/11/14 05:13:07;;;;;;;26.80;12.00;;;;;;;4.63;100.00;99418.71;102444;1317;22501;-77
2022/11/14 05:15:52;;;;;;;23.60;11.50;;;;;;;4.63;100.00;99410.33;102239;1303;137975;-77
2022/11/14 05:18:41;;;;;;;23.50;12.70;;;;;;;4.61;100.00;99411.44;102265;1317;24347;-77
2022/11/14 05:21:27;;;;;;;16.70;9.80;;;;;;;4.62;100.00;99413.52;102377;1303;139448;-77
2022/11/14 05:24:18;;;;;;;22.20;11.20;;;;;;;4.61;100.00;99412.89;102437;1318;22507;-77
2022/11/14 05:27:04;;;;;;;24.20;11.60;;;;;;;4.60;100.00;99407.76;102381;1310;138097;-77
2022/11/14 05:29:50;;;;;;;25.60;12.30;;;;;;;4.60;100.00;99394.84;102358;1303;25461;-77
2022/11/14 05:32:35;;;;;;;25.20;12.80;;;;;;;4.59;100.00;99393.75;102079;1317;138301;-77
2022/11/14 05:35:21;;;;;;;25.70;11.40;;;;;;;4.57;100.00;99396.59;102364;1294;22499;-77
2022/11/14 05:38:06;;;;;;;19.70;10.10;;;;;;;4.57;100.00;99405.59;102625;1301;138568;-77
2022/11/14 05:40:52;;;;;;;19.00;9.60;;;;;;;4.55;100.00;99407.42;102375;1302;22469;-77
2022/11/14 05:43:37;;;;;;;22.90;11.30;;;;;;;4.53;100.00;99410.05;102335;1305;140379;-78
2022/11/14 05:46:23;;;;;;;20.10;11.00;;;;;;;4.51;100.00;99411.75;102494;1317;23228;-77
2022/11/14 05:49:09;;;;;;;27.20;12.80;;;;;;;4.51;100.00;99410.80;102496;1287;22506;-77
2022/11/14 05:51:54;;;;;;;20.40;11.00;;;;;;;4.51;100.00;99402.37;102280;1306;138163;-77
2022/11/14 05:54:40;;;;;;;19.70;10.50;;;;;;;4.50;100.00;99401.88;102360;1296;22577;-77
2022/11/14 05:57:25;;;;;;;20.60;11.60;;;;;;;4.50;100.00;99396.65;102274;1303;138472;-77
2022/11/14 06:00:11;;;;;;;20.10;12.10;;;;;;;4.51;100.00;99398.89;102633;1286;23352;-77
2022/11/14 06:02:58;;;;;;;22.80;12.20;;;;;;;4.53;100.00;99397.10;102425;1303;138655;-77
2022/11/14 06:05:43;;;;;;;24.50;11.20;;;;;;;4.54;100.00;99399.70;102475;1303;24299;-77
2022/11/14 06:08:30;;;;;;;23.10;11.10;;;;;;;4.54;100.00;99404.09;102493;1308;141225;-77
2022/11/14 06:11:20;;;;;;;22.70;10.50;;;;;;;4.54;100.00;99409.73;102722;1293;22504;-77
2022/11/14 06:14:05;;;;;;;18.20;10.30;;;;;;;4.54;100.00;99413.67;102747;1292;138567;-76
2022/11/14 06:16:51;;;;;;;17.10;8.70;;;;;;;4.54;100.00;99416.58;102370;1312;22479;-77
2022/11/14 06:19:37;;;;;;;15.30;8.40;;;;;;;4.52;100.00;99417.34;102799;1318;25208;-77
2022/11/14 06:22:23;;;;;;;16.90;9.70;;;;;;;4.50;100.00;99410.41;102707;1315;24247;-77
2022/11/14 06:25:08;;;;;;;19.10;9.80;;;;;;;4.48;100.00;99418.69;102879;1317;22497;-77
2022/11/14 06:27:54;;;;;;;17.80;10.30;;;;;;;4.47;100.00;99420.65;102246;1313;138339;-77
2022/11/14 06:30:40;;;;;;;21.50;10.10;;;;;;;4.45;100.00;99421.01;102576;1294;22496;-77
2022/11/14 06:33:28;;;;;;;21.70;11.30;;;;;;;4.48;100.00;99429.47;102395;1303;139379;-77
2022/11/14 06:36:14;;;;;;;19.00;9.90;;;;;;;4.51;100.00;99431.47;102478;1296;22752;-77
2022/11/14 06:39:00;;;;;;;18.70;10.00;;;;;;;4.50;100.00;99427.05;102780;1286;139093;-78
2022/11/14 06:41:45;;;;;;;16.10;8.10;;;;;;;4.51;100.00;99419.57;102087;1297;1164513;-77
2022/11/14 06:44:31;;;;;;;18.00;9.90;;;;;;;4.53;100.00;99422.02;102494;1294;138458;-77
2022/11/14 06:47:16;;;;;;;17.60;8.90;;;;;;;4.55;100.00;99421.75;102746;1296;22511;-77
2022/11/14 06:50:03;;;;;;;17.30;8.90;;;;;;;4.58;100.00;99420.28;103178;1294;138424;-78
2022/11/14 06:52:48;;;;;;;13.90;8.10;;;;;;;4.59;100.00;99413.87;102615;1296;24995;-77
2022/11/14 06:55:34;;;;;;;17.10;8.50;;;;;;;4.60;100.00;99411.22;102664;1294;25577;-77
2022/11/14 06:58:20;;;;;;;16.80;9.60;;;;;;;4.60;100.00;99413.92;102937;1296;22527;-77
2022/11/14 07:01:13;;;;;;;17.00;9.20;;;;;;;4.62;100.00;99410.78;102463;1300;25304;-76
2022/11/14 07:04:01;;;;;;;16.60;9.20;;;;;;;4.71;100.00;99407.34;102258;1308;138347;-77
2022/11/14 07:06:47;;;;;;;17.20;9.10;;;;;;;4.74;100.00;99407.02;102462;1318;25480;-77
2022/11/14 07:09:32;;;;;;;16.60;9.00;;;;;;;4.73;100.00;99402.03;103046;1312;139093;-77
2022/11/14 07:12:18;;;;;;;17.00;9.60;;;;;;;4.76;100.00;99399.79;102364;1297;22493;-77
2022/11/14 07:15:04;;;;;;;18.50;10.50;;;;;;;4.79;100.00;99393.08;102452;1313;138119;-78
2022/11/14 07:17:50;;;;;;;18.50;9.10;;;;;;;4.87;100.00;99392.44;102951;1293;24702;-78
2022/11/14 07:20:36;;;;;;;16.10;8.90;;;;;;;4.96;100.00;99393.77;102355;1318;138426;-78
2022/11/14 07:23:22;;;;;;;14.80;8.60;;;;;;;4.96;100.00;99389.42;102427;1303;22549;-77
2022/11/14 07:26:10;;;;;;;14.20;8.30;;;;;;;4.95;99.94;99386.08;102492;1303;138279;-78
2022/11/14 07:28:57;;;;;;;13.80;7.90;;;;;;;4.96;99.97;99391.98;102525;1316;25315;-78
2022/11/14 07:31:45;;;;;;;13.40;7.90;;;;;;;4.94;99.89;99395.52;102751;1292;22515;-78
2022/11/14 07:34:33;;;;;;;17.00;9.00;;;;;;;4.93;99.73;99401.45;102481;1315;22483;-78
2022/11/14 07:37:40;;;;;;;15.20;9.00;;;;;;;4.92;99.93;99400.08;102391;1303;22529;-77
2022/11/14 07:40:32;;;;;;;17.30;9.30;;;;;;;4.94;100.00;99397.06;104241;1300;23311;-78
2022/11/14 07:43:21;;;;;;;16.10;9.00;;;;;;;4.96;100.00;99398.84;102644;1293;22492;-77
2022/11/14 07:46:12;;;;;;;17.40;9.80;;;;;;;4.97;100.00;99397.90;102268;1318;138133;-77
2022/11/14 07:48:58;;;;;;;17.50;8.40;;;;;;;5.00;100.00;99401.68;102522;1310;22520;-77
2022/11/14 07:51:43;;;;;;;15.60;9.60;;;;;;;5.02;100.00;99400.95;102335;1300;138996;-77
2022/11/14 07:54:40;;;;;;;14.00;8.80;;;;;;;5.03;99.70;99404.80;102444;1312;25262;-77
2022/11/14 07:57:28;;;;;;;13.20;8.20;;;;;;;5.02;99.40;99401.66;102245;1305;138108;-77
2022/11/14 08:00:33;;;;;;;;;;;;;;;4.99;99.20;99404.16;102319;1299;22571;-77
2022/11/14 08:07:25;;;;;;;17.30;9.30;;;;;;;4.93;99.12;99392.32;102736;1310;24430;-77
2022/11/14 08:10:26;;;;;;;17.60;10.10;;;;;;;4.93;98.81;99397.95;99978;1348;566651;-77
2022/11/14 08:13:11;;;;;;;16.00;9.40;;;;;;;4.91;99.22;99395.02;101517;1325;24276;-77
2022/11/14 08:15:58;;;;;;;16.80;10.20;;;;;;;4.94;99.57;99388.90;101808;1310;138281;-77
2022/11/14 08:18:44;;;;;;;18.60;9.00;;;;;;;4.97;99.54;99384.45;101803;1310;22518;-77
2022/11/14 08:21:29;;;;;;;17.60;9.50;;;;;;;5.00;99.42;99378.30;101686;1320;137376;-78
2022/11/14 08:24:15;;;;;;;17.70;9.80;;;;;;;5.03;99.42;99375.64;100869;1314;1333704;-78
2022/11/14 08:27:01;;;;;;;17.50;9.40;;;;;;;5.07;99.50;99370.30;101734;1307;138026;-77
2022/11/14 08:29:47;;;;;;;17.00;10.00;;;;;;;5.09;99.33;99361.02;101893;1310;22505;-78
2022/11/14 08:32:32;;;;;;;17.60;9.60;;;;;;;5.12;99.56;99359.94;102058;1298;137438;-78
2022/11/14 08:35:18;;;;;;;17.70;9.30;;;;;;;5.17;99.54;99358.88;102403;1299;22504;-78
2022/11/14 08:38:03;;;;;;;17.40;10.00;;;;;;;5.19;99.52;99354.66;102127;1298;138537;-78
2022/11/14 08:40:49;;;;;;;18.60;10.70;;;;;;;5.19;99.29;99356.38;101923;1316;25275;-77
2022/11/14 08:43:34;;;;;;;16.10;9.70;;;;;;;5.20;98.98;99351.31;101669;1301;22550;-77
2022/11/14 08:46:20;;;;;;;17.40;9.60;;;;;;;5.20;98.81;99345.46;101792;1301;138901;-77
2022/11/14 08:49:06;;;;;;;20.50;11.40;;;;;;;5.23;99.14;99344.76;101663;1325;24379;-76
2022/11/14 08:51:52;;;;;;;23.80;12.20;;;;;;;5.28;99.06;99346.68;101559;1323;137581;-77
2022/11/14 08:54:38;;;;;;;25.10;13.30;;;;;;;5.31;99.15;99350.45;101778;1308;23935;-77
2022/11/14 08:57:23;;;;;;;23.20;12.60;;;;;;;5.33;98.78;99343.46;101596;1315;137580;-77
2022/11/14 09:00:10;;;;;;;19.80;10.90;;;;;;;5.36;98.81;99345.29;101625;1311;22588;-75
2022/11/14 09:02:55;;;;;;;18.80;11.60;;;;;;;5.38;99.10;99344.71;101573;1325;137426;-76
2022/11/14 09:05:41;;;;;;;14.70;9.60;;;;;;;5.41;98.87;99343.77;101631;1317;22487;-75
2022/11/14 09:08:27;;;;;;;15.70;9.90;;;;;;;5.43;98.67;99345.38;101480;1301;137969;-75
2022/11/14 09:11:13;;;;;;;17.10;9.70;;;;;;;5.43;98.58;99346.58;101990;1313;24261;-76
2022/11/14 09:14:00;;;;;;;14.70;9.70;;;;;;;5.42;97.87;99342.64;101957;1301;22805;-74
2022/11/14 09:16:47;;;;;;;17.30;10.00;;;;;;;5.40;98.13;99346.45;102250;1301;25268;-77
2022/11/14 09:19:33;;;;;;;15.70;9.40;;;;;;;5.41;98.10;99352.52;102764;1297;23020;-76
2022/11/14 09:22:20;;;;;;;15.10;9.80;;;;;;;5.40;97.72;99359.34;102561;1301;137422;-76
2022/11/14 09:25:07;;;;;;;16.10;10.40;;;;;;;5.40;97.81;99350.36;104011;1317;22204;-78
2022/11/14 09:27:54;;;;;;;19.90;10.10;;;;;;;5.43;98.19;99350.73;102939;1297;22504;-75
2022/11/14 09:30:40;;;;;;;17.70;10.40;;;;;;;5.44;97.97;99340.86;102147;1308;138088;-80
2022/11/14 09:33:27;;;;;;;19.00;10.90;;;;;;;5.49;98.26;99342.36;102780;1311;25341;-74
2022/11/14 09:36:14;;;;;;;17.40;9.90;;;;;;;5.54;98.05;99338.58;101730;1307;137425;-73
2022/11/14 09:39:02;;;;;;;19.80;11.10;;;;;;;5.57;98.23;99336.26;101956;1318;24378;-73
2022/11/14 09:42:04;;;;;;;16.50;10.50;;;;;;;5.59;97.91;99331.33;101457;1325;137544;-74
2022/11/14 09:44:57;;;;;;;18.70;10.30;;;;;;;5.63;98.12;99324.93;101783;1293;23911;-73
2022/11/14 09:47:49;;;;;;;19.00;11.20;;;;;;;5.68;98.02;99322.48;102549;1318;140178;-73
2022/11/14 09:50:45;;;;;;;18.70;10.90;;;;;;;5.70;97.65;99326.38;102664;1285;23122;-73
2022/11/14 09:53:36;;;;;;;19.80;11.30;;;;;;;5.69;97.54;99326.48;103946;1304;138246;-73
2022/11/14 09:56:25;;;;;;;15.60;10.10;;;;;;;5.70;97.74;99334.36;102811;1295;22489;-74
2022/11/14 09:59:13;;;;;;;15.80;10.10;;;;;;;5.69;97.20;99331.45;102520;1288;137773;-75
2022/11/14 10:02:04;;;;;;;15.60;10.10;;;;;;;5.70;97.27;99328.45;102844;1294;25440;-75
2022/11/14 10:04:59;;;;;;;18.00;11.00;;;;;;;5.73;97.49;99327.98;102614;1310;138096;-75
2022/11/14 10:07:54;;;;;;;17.10;10.80;;;;;;;5.74;97.07;99320.63;102613;1316;25291;-75
2022/11/14 10:11:07;;;;;;;20.30;10.90;;;;;;;5.73;96.86;99314.27;102612;1317;137939;-75
2022/11/14 10:14:18;;;;;;;17.40;10.00;;;;;;;5.70;96.79;99309.16;103182;1310;22412;-75
2022/11/14 10:17:58;;;;;;;17.10;10.50;;;;;;;5.71;97.27;99312.88;103531;1313;22484;-75
2022/11/14 10:20:54;;;;;;;22.50;13.20;;;;;;;5.70;97.00;99315.45;105019;1325;138312;-75
2022/11/14 10:24:01;;;;;;;24.50;12.90;;;;;;;5.74;97.32;99310.87;101605;1323;22611;-75
2022/11/14 10:27:03;;;;;;;16.60;9.90;;;;;;;5.77;96.94;99304.42;101514;1323;142351;-75
2022/11/14 10:30:17;;;;;;;17.30;10.70;;;;;;;5.78;96.90;99297.40;101658;1324;25700;-75
2022/11/14 10:33:22;;;;;;;15.50;9.80;;;;;;;5.78;96.72;99289.50;101674;1319;138846;-76
2022/11/14 10:36:55;;;;;;;18.40;11.20;;;;;;;5.77;96.71;99289.28;102204;1313;24266;-75
2022/11/14 10:40:01;;;;;;;19.40;11.40;;;;;;;5.77;96.85;99283.09;101279;1307;138722;-75
2022/11/14 10:42:56;;;;;;;17.10;9.60;;;;;;;5.77;96.52;99284.08;101964;1314;22708;-75
2022/11/14 10:45:50;;;;;;;15.50;9.60;;;;;;;5.76;96.54;99277.63;101497;1324;137363;-73
2022/11/14 10:48:41;;;;;;;17.70;10.50;;;;;;;5.78;96.65;99276.86;101400;1323;24267;-75
2022/11/14 10:51:56;;;;;;;16.70;11.10;;;;;;;5.78;96.05;99273.65;101391;1299;139467;-76
2022/11/14 10:54:47;;;;;;;18.00;11.40;;;;;;;5.77;96.23;99275.77;101954;1309;24362;-75
2022/11/14 10:57:35;;;;;;;17.90;11.10;;;;;;;5.79;96.33;99271.21;101636;1327;138566;-76
2022/11/14 11:00:21;;;;;;;17.70;11.50;;;;;;;5.84;96.91;99275.38;101656;1314;25437;-75
2022/11/14 11:03:08;;;;;;;17.70;11.00;;;;;;;5.89;97.13;99272.42;101453;1314;137792;-75
2022/11/14 11:05:57;;;;;;;17.90;10.50;;;;;;;5.93;96.91;99262.42;101657;1309;22550;-76
2022/11/14 11:12:14;;;;;;;14.30;9.50;;;;;;;5.91;96.05;99255.94;101421;1330;22499;-75
2022/11/14 11:15:19;;;;;;;19.10;11.50;;;;;;;5.89;95.69;99255.99;101326;1324;138128;-75
2022/11/14 11:18:20;;;;;;;19.60;11.60;;;;;;;5.88;96.05;99251.04;101799;1301;22517;-76
2022/11/14 11:21:08;;;;;;;21.20;12.90;;;;;;;5.89;96.30;99248.17;101904;1324;139329;-76
2022/11/14 11:23:57;;;;;;;18.60;11.00;;;;;;;5.87;96.19;99245.75;101869;1302;22524;-75
2022/11/14 11:26:42;;;;;;;18.30;11.00;;;;;;;5.87;95.79;99245.49;101680;1314;138368;-75
2022/11/14 11:29:28;;;;;;;18.90;12.00;;;;;;;5.88;96.31;99247.54;101915;1314;25325;-75
2022/11/14 11:32:25;;;;;;;17.40;10.90;;;;;;;5.90;96.47;99244.31;101788;1307;23274;-75
2022/11/14 11:35:16;;;;;;;19.20;11.10;;;;;;;5.90;96.05;99240.37;101953;1306;22507;-75
2022/11/14 11:38:04;;;;;;;20.20;11.40;;;;;;;5.91;96.22;99239.75;101711;1314;24639;-75
2022/11/14 11:40:53;;;;;;;21.20;12.60;;;;;;;5.93;96.58;99237.76;101560;1292;137847;-76
2022/11/14 11:43:38;;;;;;;21.30;12.80;;;;;;;5.91;96.25;99237.17;102129;1317;22494;-76
2022/11/14 11:46:43;;;;;;;22.80;11.70;;;;;;;5.92;96.28;99233.55;102420;1317;137922;-75
2022/11/14 11:49:48;;;;;;;26.50;13.40;;;;;;;5.92;96.87;99229.52;102306;1317;22689;-76
2022/11/14 11:52:47;;;;;;;26.10;13.80;;;;;;;5.95;96.81;99227.20;102552;1301;141223;-76
2022/11/14 11:55:40;;;;;;;22.30;12.80;;;;;;;5.97;96.49;99225.73;102383;1287;22708;-76
2022/11/14 11:58:36;;;;;;;22.30;11.80;;;;;;;5.95;96.35;99227.33;102393;1317;137998;-76
2022/11/14 12:01:21;;;;;;;24.60;13.20;;;;;;;5.95;96.87;99225.43;102319;1316;24468;-75
2022/11/14 12:04:07;;;;;;;33.10;14.90;;;;;;;5.96;96.88;99225.39;102270;1310;22492;-76
2022/11/14 12:07:02;;;;;;;27.70;14.30;;;;;;;5.99;97.35;99223.58;102394;1308;23044;-76
2022/11/14 12:09:50;;;;;;;24.40;14.10;;;;;;;6.01;96.87;99220.86;102537;1300;22752;-75
2022/11/14 12:12:42;;;;;;;27.50;15.20;;;;;;;6.01;97.15;99223.39;102346;1294;138358;-76
2022/11/14 12:15:47;;;;;;;25.10;13.10;;;;;;;6.00;97.24;99217.17;102519;1303;26538;-75
2022/11/14 12:18:42;;;;;;;29.90;15.30;;;;;;;5.99;96.76;99212.09;102290;1311;137776;-76
2022/11/14 12:21:34;;;;;;;28.90;15.50;;;;;;;5.99;97.15;99209.02;102455;1302;26771;-75
2022/11/14 12:24:46;;;;;;;26.70;13.90;;;;;;;6.01;97.18;99206.74;102268;1317;137765;-76
2022/11/14 12:27:58;;;;;;;31.80;16.70;;;;;;;6.02;97.58;99197.40;102383;1317;23400;-75
2022/11/14 12:30:51;;;;;;;28.90;14.80;;;;;;;6.04;97.73;99197.91;102473;1293;25294;-76
2022/11/14 12:33:49;;;;;;;29.80;15.40;;;;;;;6.07;97.73;99196.48;102300;1296;156920;-78
2022/11/14 12:36:45;;;;;;;36.80;16.30;;;;;;;6.07;97.55;99184.16;102362;1300;26521;-76
2022/11/14 12:39:32;;;;;;;31.60;15.40;;;;;;;6.09;97.99;99185.59;102284;1301;137483;-76
2022/11/14 12:42:21;;;;;;;32.20;17.20;;;;;;;6.13;97.93;99186.58;102463;1317;22493;-76
2022/11/14 12:45:39;;;;;;;32.30;15.80;;;;;;;6.14;97.99;99183.34;102291;1301;137635;-76
2022/11/14 12:48:25;;;;;;;34.60;17.30;;;;;;;6.14;97.72;99179.84;102389;1301;22590;-76
2022/11/14 12:51:26;;;;;;;35.80;17.00;;;;;;;6.14;97.61;99171.77;102284;1295;137626;-76
2022/11/14 12:54:48;;;;;;;35.30;18.10;;;;;;;6.16;97.73;99173.25;102642;1299;22608;-76
2022/11/14 12:57:46;;;;;;;33.10;16.90;;;;;;;6.15;97.48;99173.27;101970;1319;138467;-76
2022/11/14 13:00:40;;;;;;;;;;;;;;;6.11;97.19;99168.05;102152;1319;22670;-76
2022/11/14 13:03:26;;;;;;;33.10;17.30;;;;;;;6.08;97.26;99168.04;101782;1298;124318;-76